Time;durP1;ratioP1;P1;durP2;ratioP2;P2;SDS_P1;SDS_P2;PMS_P1;PMS_P2;Temp;Humidity;BMP_temperature;BMP_pressure;BME280_temperature;BME280_humidity;BME280_pressure;Samples;Min_cycle;Max_cycle;Signal;HPM_P1;HPM_P2
2023/07/07 00:01:02;;;;;;;;;;;;;;;16.58;100.00;101878.03;5003350;28;19983;-73
2023/07/07 00:03:29;;;;;;;;;;;;;;;16.52;100.00;101881.28;4989005;28;19936;-73
2023/07/07 00:05:55;;;;;;;;;;;;;;;16.52;100.00;101885.78;4973877;28;19929;-73
2023/07/07 00:08:22;;;;;;;;;;;;;;;16.46;100.00;101881.94;5004369;28;20016;-73
2023/07/07 00:10:48;;;;;;;;;;;;;;;16.48;100.00;101882.59;4988663;28;19991;-73
2023/07/07 00:13:15;;;;;;;;;;;;;;;16.46;100.00;101886.41;4989329;28;20408;-73
2023/07/07 00:15:45;;;;;;;;;;;;;;;16.42;100.00;101877.94;4984580;28;20485;-73
2023/07/07 00:18:13;;;;;;;;;;;;;;;16.36;100.00;101875.94;4990947;28;19929;-73
2023/07/07 00:20:40;;;;;;;;;;;;;;;16.30;100.00;101885.34;5004217;28;20016;-73
2023/07/07 00:23:07;;;;;;;;;;;;;;;16.26;100.00;101876.06;4980420;28;19936;-73
2023/07/07 00:25:33;;;;;;;;;;;;;;;16.28;100.00;101879.38;4986538;28;19930;-72
2023/07/07 00:28:00;;;;;;;;;;;;;;;16.28;100.00;101875.91;4996107;28;19969;-73
2023/07/07 00:30:27;;;;;;;;;;;;;;;16.26;100.00;101885.84;4990713;28;20413;-73
2023/07/07 00:32:54;;;;;;;;;;;;;;;16.21;100.00;101883.66;4998338;28;19926;-73
2023/07/07 00:35:20;;;;;;;;;;;;;;;16.25;100.00;101886.81;4999724;28;19930;-72
2023/07/07 00:37:47;;;;;;;;;;;;;;;16.26;100.00;101884.00;5004234;28;19934;-72
2023/07/07 00:40:14;;;;;;;;;;;;;;;16.27;100.00;101883.03;4997047;28;19929;-71
2023/07/07 00:42:40;;;;;;;;;;;;;;;16.29;100.00;101883.69;5001430;28;20048;-72
2023/07/07 00:45:15;;;;;;;;;;;;;;;16.26;100.00;101877.88;4991408;28;19933;-72
2023/07/07 00:47:41;;;;;;;;;;;;;;;16.24;100.00;101877.22;4987877;28;19984;-73
2023/07/07 00:50:09;;;;;;;;;;;;;;;16.22;100.00;101882.66;4999135;28;19929;-72
2023/07/07 00:52:36;;;;;;;;;;;;;;;16.18;100.00;101886.63;4998925;28;19957;-72
2023/07/07 00:55:03;;;;;;;;;;;;;;;16.17;100.00;101893.75;4987331;28;19932;-72
2023/07/07 00:57:30;;;;;;;;;;;;;;;16.19;100.00;101890.91;4997428;28;19992;-73
2023/07/07 00:59:56;;;;;;;;;;;;;;;16.20;100.00;101884.63;5005246;28;19929;-73
2023/07/07 01:02:25;;;;;;;;;;;;;;;16.18;100.00;101892.72;4994043;28;19931;-74
2023/07/07 01:04:58;;;;;;;;;;;;;;;16.15;100.00;101882.47;4997131;28;19936;-72
2023/07/07 01:07:29;;;;;;;;;;;;;;;16.10;100.00;101889.22;4993654;28;19934;-73
2023/07/07 01:09:56;;;;;;;;;;;;;;;16.04;100.00;101890.69;4999747;28;19926;-72
2023/07/07 01:12:22;;;;;;;;;;;;;;;15.98;100.00;101888.66;4996527;28;20338;-72
2023/07/07 01:14:51;;;;;;;;;;;;;;;15.92;100.00;101884.00;5001360;28;19979;-72
2023/07/07 01:17:33;;;;;;;;;;;;;;;15.89;100.00;101884.28;4997488;28;19929;-72
2023/07/07 01:19:59;;;;;;;;;;;;;;;15.88;100.00;101885.28;4989184;28;20318;-72
2023/07/07 01:22:55;;;;;;;;;;;;;;;15.85;100.00;101880.28;5003415;28;20767;-72
2023/07/07 01:25:40;;;;;;;;;;;;;;;15.80;100.00;101881.59;4975436;28;19929;-71
2023/07/07 01:28:31;;;;;;;;;;;;;;;15.76;100.00;101882.91;5007581;28;20047;-71
2023/07/07 01:31:16;;;;;;;;;;;;;;;15.71;100.00;101885.13;4989487;28;20626;-72
2023/07/07 01:33:44;;;;;;;;;;;;;;;15.64;100.00;101884.06;4990472;28;19933;-71
2023/07/07 01:36:11;;;;;;;;;;;;;;;15.62;100.00;101886.03;4998299;28;19926;-71
2023/07/07 01:38:38;;;;;;;;;;;;;;;15.56;100.00;101890.16;5004887;28;20335;-71
2023/07/07 01:41:26;;;;;;;;;;;;;;;15.50;100.00;101882.00;5002297;28;19929;-72
2023/07/07 01:43:55;;;;;;;;;;;;;;;15.47;100.00;101896.34;4997654;28;19929;-71
2023/07/07 01:46:29;;;;;;;;;;;;;;;15.44;100.00;101888.72;5002915;28;20202;-70
2023/07/07 01:49:19;;;;;;;;;;;;;;;15.46;100.00;101885.91;5004566;28;19929;-72
2023/07/07 01:51:53;;;;;;;;;;;;;;;15.39;100.00;101885.72;5002639;28;19972;-72
2023/07/07 01:54:21;;;;;;;;;;;;;;;15.36;100.00;101878.91;5002221;28;20415;-71
2023/07/07 01:56:48;;;;;;;;;;;;;;;15.29;100.00;101885.78;5006418;28;19929;-71
2023/07/07 01:59:16;;;;;;;;;;;;;;;15.27;100.00;101882.47;4982447;28;20345;-70
2023/07/07 02:01:43;;;;;;;;;;;;;;;15.19;100.00;101877.94;4991947;28;20015;-70
2023/07/07 02:04:10;;;;;;;;;;;;;;;15.17;100.00;101879.91;4998557;28;21199;-69
2023/07/07 02:06:36;;;;;;;;;;;;;;;15.16;100.00;101877.41;5009716;28;19961;-70
2023/07/07 02:09:03;;;;;;;;;;;;;;;15.16;100.00;101877.41;4995307;28;19936;-69
2023/07/07 02:11:29;;;;;;;;;;;;;;;15.14;100.00;101879.38;4997066;28;19925;-69
2023/07/07 02:13:55;;;;;;;;;;;;;;;15.11;100.00;101879.66;5004833;28;20301;-69
2023/07/07 02:16:22;;;;;;;;;;;;;;;15.06;100.00;101874.00;4987389;28;19972;-69
2023/07/07 02:18:48;;;;;;;;;;;;;;;15.05;100.00;101883.72;5008334;28;20021;-69
2023/07/07 02:21:16;;;;;;;;;;;;;;;15.02;100.00;101884.03;5004240;28;20453;-71
2023/07/07 02:23:43;;;;;;;;;;;;;;;15.03;100.00;101880.41;5008623;28;20024;-69
2023/07/07 02:26:10;;;;;;;;;;;;;;;15.03;100.00;101885.69;5005455;28;19976;-69
2023/07/07 02:28:36;;;;;;;;;;;;;;;14.99;100.00;101885.19;5004021;28;19933;-68
2023/07/07 02:31:02;;;;;;;;;;;;;;;14.99;100.00;101889.59;4992631;28;19979;-69
2023/07/07 02:33:32;;;;;;;;;;;;;;;14.96;100.00;101892.56;5003184;28;20412;-69
2023/07/07 02:36:01;;;;;;;;;;;;;;;14.94;100.00;101886.59;5009981;28;20371;-70
2023/07/07 02:38:28;;;;;;;;;;;;;;;14.91;100.00;101887.72;4995540;28;19929;-74
2023/07/07 02:40:55;;;;;;;;;;;;;;;14.91;100.00;101881.59;4988213;28;20010;-74
2023/07/07 02:43:21;;;;;;;;;;;;;;;14.87;100.00;101886.34;5007287;28;19979;-74
2023/07/07 02:45:48;;;;;;;;;;;;;;;14.78;100.00;101888.09;5004111;28;19944;-73
2023/07/07 02:48:16;;;;;;;;;;;;;;;14.77;100.00;101894.31;5009831;28;19929;-74
2023/07/07 02:50:42;;;;;;;;;;;;;;;14.80;100.00;101895.88;4998811;28;20056;-74
2023/07/07 02:53:09;;;;;;;;;;;;;;;14.80;100.00;101896.69;5001538;28;19929;-74
2023/07/07 02:55:37;;;;;;;;;;;;;;;14.83;100.00;101892.91;5003389;28;19968;-73
2023/07/07 02:58:04;;;;;;;;;;;;;;;14.82;100.00;101902.66;4995396;28;19976;-73
2023/07/07 03:00:30;;;;;;;;;;;;;;;14.82;100.00;101896.53;5009392;28;19930;-74
2023/07/07 03:02:56;;;;;;;;;;;;;;;14.81;100.00;101902.78;5004964;28;19930;-74
2023/07/07 03:05:24;;;;;;;;;;;;;;;14.80;100.00;101901.97;5005598;28;19929;-73
2023/07/07 03:07:50;;;;;;;;;;;;;;;14.78;100.00;101905.75;4985365;28;19926;-74
2023/07/07 03:10:17;;;;;;;;;;;;;;;14.76;100.00;101905.03;4992335;28;19995;-74
2023/07/07 03:12:43;;;;;;;;;;;;;;;14.74;100.00;101901.72;4987480;28;19932;-73
2023/07/07 03:15:10;;;;;;;;;;;;;;;14.72;100.00;101904.53;4992931;28;19972;-73
2023/07/07 03:17:36;;;;;;;;;;;;;;;14.70;100.00;101903.00;4992046;28;20016;-74
2023/07/07 03:20:05;;;;;;;;;;;;;;;14.67;100.00;101900.66;4997896;28;20306;-73
2023/07/07 03:22:31;;;;;;;;;;;;;;;14.62;100.00;101903.72;4988890;28;20063;-74
2023/07/07 03:25:00;;;;;;;;;;;;;;;14.60;100.00;101909.16;5004408;28;19976;-74
2023/07/07 03:27:26;;;;;;;;;;;;;;;14.57;100.00;101900.72;4997973;28;20032;-73
2023/07/07 03:29:53;;;;;;;;;;;;;;;14.58;100.00;101905.00;4987447;28;20390;-73
2023/07/07 03:32:19;;;;;;;;;;;;;;;14.57;100.00;101906.81;4989941;28;19925;-73
2023/07/07 03:34:49;;;;;;;;;;;;;;;14.59;100.00;101909.31;4989362;28;20366;-74
2023/07/07 03:37:16;;;;;;;;;;;;;;;14.60;100.00;101910.94;5001664;28;19948;-73
2023/07/07 03:39:42;;;;;;;;;;;;;;;14.61;100.00;101915.28;4988830;28;19936;-74
2023/07/07 03:42:09;;;;;;;;;;;;;;;14.59;100.00;101915.41;5002528;28;19939;-72
2023/07/07 03:44:36;;;;;;;;;;;;;;;14.57;100.00;101913.91;5007776;28;19929;-72
2023/07/07 03:47:02;;;;;;;;;;;;;;;14.56;100.00;101910.44;4999346;28;19925;-75
2023/07/07 03:49:29;;;;;;;;;;;;;;;14.58;100.00;101915.56;5000899;28;19933;-75
2023/07/07 03:51:55;;;;;;;;;;;;;;;14.55;100.00;101915.84;5006637;28;19983;-75
2023/07/07 03:54:22;;;;;;;;;;;;;;;14.53;100.00;101913.31;4985131;28;20029;-75
2023/07/07 03:56:48;;;;;;;;;;;;;;;14.55;100.00;101914.00;4994917;28;20459;-75
2023/07/07 03:59:15;;;;;;;;;;;;;;;14.56;100.00;101914.84;4986216;28;19960;-72
2023/07/07 04:01:41;;;;;;;;;;;;;;;14.58;100.00;101921.69;5002818;28;19936;-75
2023/07/07 04:04:08;;;;;;;;;;;;;;;14.63;100.00;101921.25;4981902;28;19976;-73
2023/07/07 04:06:35;;;;;;;;;;;;;;;14.66;100.00;101928.03;4987778;28;19935;-73
2023/07/07 04:09:01;;;;;;;;;;;;;;;14.65;100.00;101923.75;4990367;28;19929;-73
2023/07/07 04:11:30;;;;;;;;;;;;;;;14.68;100.00;101926.94;4984664;28;19977;-73
2023/07/07 04:13:56;;;;;;;;;;;;;;;14.70;100.00;101926.75;5005450;28;20386;-73
2023/07/07 04:16:24;;;;;;;;;;;;;;;14.73;100.00;101929.13;4981381;28;19933;-73
2023/07/07 04:18:52;;;;;;;;;;;;;;;14.75;100.00;101922.69;4990472;28;20019;-73
2023/07/07 04:21:20;;;;;;;;;;;;;;;14.78;100.00;101925.06;5002537;28;19987;-73
2023/07/07 04:23:47;;;;;;;;;;;;;;;14.82;100.00;101929.06;4994336;28;20020;-74
2023/07/07 04:26:14;;;;;;;;;;;;;;;14.87;100.00;101925.16;5008599;28;20023;-73
2023/07/07 04:28:41;;;;;;;;;;;;;;;14.90;100.00;101923.03;4983474;28;19972;-74
2023/07/07 04:31:09;;;;;;;;;;;;;;;14.91;100.00;101923.88;5003284;28;19929;-73
2023/07/07 04:33:36;;;;;;;;;;;;;;;14.93;100.00;101919.28;4998717;28;19929;-73
2023/07/07 04:36:04;;;;;;;;;;;;;;;14.93;100.00;101925.38;5007114;28;19926;-73
2023/07/07 04:38:31;;;;;;;;;;;;;;;14.93;100.00;101932.47;5003584;28;19995;-73
2023/07/07 04:41:16;;;;;;;;;;;;;;;14.91;100.00;101927.34;4995707;28;19929;-75
2023/07/07 04:43:46;;;;;;;;;;;;;;;14.90;100.00;101930.97;4979503;28;20410;-73
2023/07/07 04:46:14;;;;;;;;;;;;;;;14.92;100.00;101925.53;5005733;28;19960;-73
2023/07/07 04:48:41;;;;;;;;;;;;;;;14.93;100.00;101927.19;4990368;28;19929;-73
2023/07/07 04:51:08;;;;;;;;;;;;;;;14.95;100.00;101931.34;4985210;28;19930;-73
2023/07/07 04:53:35;;;;;;;;;;;;;;;14.98;100.00;101930.22;4990698;28;19936;-73
2023/07/07 04:56:06;;;;;;;;;;;;;;;15.02;100.00;101927.13;4983229;28;19930;-73
2023/07/07 04:58:33;;;;;;;;;;;;;;;15.06;100.00;101929.50;4985425;28;19930;-73
2023/07/07 05:01:15;;;;;;;;;;;;;;;15.09;100.00;101926.53;4986987;28;20020;-73
2023/07/07 05:03:42;;;;;;;;;;;;;;;15.14;100.00;101926.94;5005820;28;19926;-73
2023/07/07 05:06:09;;;;;;;;;;;;;;;15.18;100.00;101928.28;5005584;28;20793;-73
2023/07/07 05:08:37;;;;;;;;;;;;;;;15.22;100.00;101927.00;4987305;28;20429;-73
2023/07/07 05:11:03;;;;;;;;;;;;;;;15.26;100.00;101930.19;5001637;28;20301;-72
2023/07/07 05:13:30;;;;;;;;;;;;;;;15.29;100.00;101940.44;4981635;28;19930;-72
2023/07/07 05:16:04;;;;;;;;;;;;;;;15.33;100.00;101929.44;5007149;28;19933;-72
2023/07/07 05:18:31;;;;;;;;;;;;;;;15.36;100.00;101931.78;5000788;28;19926;-73
2023/07/07 05:20:57;;;;;;;;;;;;;;;15.43;100.00;101927.53;5002210;28;19969;-73
2023/07/07 05:23:26;;;;;;;;;;;;;;;15.49;100.00;101938.50;4995468;28;19929;-73
2023/07/07 05:25:53;;;;;;;;;;;;;;;15.56;100.00;101943.03;4997396;28;19934;-73
2023/07/07 05:28:19;;;;;;;;;;;;;;;15.61;100.00;101942.59;4992525;28;19991;-73
2023/07/07 05:30:46;;;;;;;;;;;;;;;15.67;100.00;101947.25;4987257;28;19952;-73
2023/07/07 05:33:13;;;;;;;;;;;;;;;15.74;100.00;101944.84;4994364;28;20526;-73
2023/07/07 05:35:53;;;;;;;;;;;;;;;15.80;100.00;101950.38;5004337;28;19929;-72
2023/07/07 05:38:21;;;;;;;;;;;;;;;15.86;100.00;101953.38;5000383;28;20355;-73
2023/07/07 05:40:48;;;;;;;;;;;;;;;15.89;100.00;101953.09;5001415;28;19929;-73
2023/07/07 05:43:16;;;;;;;;;;;;;;;15.95;100.00;101953.28;4984378;28;19936;-73
2023/07/07 05:45:42;;;;;;;;;;;;;;;15.98;100.00;101953.00;5007701;28;19926;-73
2023/07/07 05:48:10;;;;;;;;;;;;;;;16.01;100.00;101955.34;5002450;28;20153;-73
2023/07/07 05:50:38;;;;;;;;;;;;;;;16.06;100.00;101952.22;5005712;28;19951;-73
2023/07/07 05:53:05;;;;;;;;;;;;;;;16.07;100.00;101945.94;4979990;28;19973;-73
2023/07/07 05:55:32;;;;;;;;;;;;;;;16.16;100.00;101947.66;5010661;28;19975;-73
2023/07/07 05:58:00;;;;;;;;;;;;;;;16.20;100.00;101942.88;5011225;28;20350;-73
2023/07/07 06:00:27;;;;;;;;;;;;;;;16.25;100.00;101942.41;5017670;28;20396;-74
2023/07/07 06:02:54;;;;;;;;;;;;;;;16.33;100.00;101940.66;5023168;28;19929;-73
2023/07/07 06:05:20;;;;;;;;;;;;;;;16.43;100.00;101934.41;4987021;28;19934;-73
2023/07/07 06:07:47;;;;;;;;;;;;;;;16.49;100.00;101939.06;5003859;28;20337;-73
2023/07/07 06:10:13;;;;;;;;;;;;;;;16.56;100.00;101932.13;5004718;28;19926;-73
2023/07/07 06:12:40;;;;;;;;;;;;;;;16.61;100.00;101933.31;4994512;28;20068;-73
2023/07/07 06:15:06;;;;;;;;;;;;;;;16.70;100.00;101942.16;5013660;28;19929;-73
2023/07/07 06:17:33;;;;;;;;;;;;;;;16.79;100.00;101943.00;5000594;28;20020;-73
2023/07/07 06:19:59;;;;;;;;;;;;;;;16.85;100.00;101944.22;4989469;28;20032;-74
2023/07/07 06:22:26;;;;;;;;;;;;;;;16.95;100.00;101939.59;5016130;28;19925;-73
2023/07/07 06:24:52;;;;;;;;;;;;;;;17.02;100.00;101951.22;5017825;28;20016;-73
2023/07/07 06:27:19;;;;;;;;;;;;;;;17.07;100.00;101951.59;4999945;28;19929;-73
2023/07/07 06:29:46;;;;;;;;;;;;;;;17.13;100.00;101952.72;4994639;28;20370;-73
2023/07/07 06:32:13;;;;;;;;;;;;;;;17.20;100.00;101951.09;5004851;28;20397;-73
2023/07/07 06:34:39;;;;;;;;;;;;;;;17.28;100.00;101953.78;5002087;28;19934;-72
2023/07/07 06:37:06;;;;;;;;;;;;;;;17.33;100.00;101948.81;4994459;28;19935;-71
2023/07/07 06:39:32;;;;;;;;;;;;;;;17.36;100.00;101945.81;4989630;28;20290;-72
2023/07/07 06:41:59;;;;;;;;;;;;;;;17.41;100.00;101952.47;4994575;28;19972;-72
2023/07/07 06:44:26;;;;;;;;;;;;;;;17.50;100.00;101960.25;4989549;28;19980;-72
2023/07/07 06:46:53;;;;;;;;;;;;;;;17.60;100.00;101954.78;4990205;28;20431;-72
2023/07/07 06:49:19;;;;;;;;;;;;;;;17.67;100.00;101953.16;4999692;28;19929;-72
2023/07/07 06:51:45;;;;;;;;;;;;;;;17.72;100.00;101956.13;4991106;28;20282;-72
2023/07/07 06:54:12;;;;;;;;;;;;;;;17.80;100.00;101957.97;5006306;28;19925;-72
2023/07/07 06:56:38;;;;;;;;;;;;;;;17.87;100.00;101956.31;4988691;28;19991;-72
2023/07/07 06:59:05;;;;;;;;;;;;;;;17.94;100.00;101951.19;5010727;28;19929;-73
2023/07/07 07:01:32;;;;;;;;;;;;;;;18.02;100.00;101960.97;4995899;28;20475;-73
2023/07/07 07:04:00;;;;;;;;;;;;;;;18.09;100.00;101961.94;4994781;28;19929;-72
2023/07/07 07:06:27;;;;;;;;;;;;;;;18.16;100.00;101962.94;5010100;28;20124;-72
2023/07/07 07:08:53;;;;;;;;;;;;;;;18.31;98.33;101960.41;5001953;28;19976;-73
2023/07/07 07:11:20;;;;;;;;;;;;;;;18.38;99.34;101958.72;5012242;28;20513;-72
2023/07/07 07:13:47;;;;;;;;;;;;;;;18.45;100.00;101957.06;4991137;28;20458;-72
2023/07/07 07:16:13;;;;;;;;;;;;;;;18.52;100.00;101962.50;4994627;28;19925;-71
2023/07/07 07:18:40;;;;;;;;;;;;;;;18.56;100.00;101964.66;5000628;28;20702;-71
2023/07/07 07:21:06;;;;;;;;;;;;;;;18.65;100.00;101965.44;5004469;28;19991;-72
2023/07/07 07:23:33;;;;;;;;;;;;;;;18.68;100.00;101967.78;5008446;28;20083;-71
2023/07/07 07:26:01;;;;;;;;;;;;;;;18.75;100.00;101968.72;4985208;28;19932;-71
2023/07/07 07:28:28;;;;;;;;;;;;;;;18.82;100.00;101971.56;5004703;28;19936;-72
2023/07/07 07:30:55;;;;;;;;;;;;;;;18.88;99.80;101970.88;4997528;28;19933;-72
2023/07/07 07:33:22;;;;;;;;;;;;;;;18.96;96.74;101972.66;5009009;28;19929;-72
2023/07/07 07:35:49;;;;;;;;;;;;;;;19.03;93.52;101975.44;4996721;28;20323;-72
2023/07/07 07:38:16;;;;;;;;;;;;;;;19.13;86.19;101974.25;5002518;28;20628;-72
2023/07/07 07:40:43;;;;;;;;;;;;;;;19.20;81.48;101976.19;5008301;28;19961;-72
2023/07/07 07:43:10;;;;;;;;;;;;;;;19.26;84.35;101983.47;4997862;28;19929;-72
2023/07/07 07:45:36;;;;;;;;;;;;;;;19.36;85.59;101984.06;4999252;28;20368;-71
2023/07/07 07:48:03;;;;;;;;;;;;;;;19.46;84.65;101975.84;5000574;28;20444;-71
2023/07/07 07:50:31;;;;;;;;;;;;;;;19.56;83.86;101979.09;5003529;28;19933;-71
2023/07/07 07:52:57;;;;;;;;;;;;;;;19.63;83.03;101977.38;5000620;28;20020;-71
2023/07/07 07:55:24;;;;;;;;;;;;;;;19.70;84.75;101975.69;4999854;28;20366;-72
2023/07/07 07:57:50;;;;;;;;;;;;;;;19.74;84.23;101971.69;4983010;28;19933;-70
2023/07/07 08:00:17;;;;;;;;;;;;;;;19.87;83.13;101980.88;4999277;28;19936;-70
2023/07/07 08:02:44;;;;;;;;;;;;;;;19.97;83.66;101984.13;4991983;28;19930;-70
2023/07/07 08:05:11;;;;;;;;;;;;;;;20.08;85.29;101981.03;5004550;28;19933;-71
2023/07/07 08:07:38;;;;;;;;;;;;;;;20.17;83.12;101981.78;4990816;28;19931;-71
2023/07/07 08:10:05;;;;;;;;;;;;;;;20.31;82.83;101985.47;4982152;28;19929;-71
2023/07/07 08:12:32;;;;;;;;;;;;;;;20.39;82.08;101992.56;5000113;28;19976;-70
2023/07/07 08:14:58;;;;;;;;;;;;;;;20.52;77.03;101985.59;5003180;28;19952;-71
2023/07/07 08:17:25;;;;;;;;;;;;;;;20.63;77.37;101994.97;4984290;28;19936;-70
2023/07/07 08:19:54;;;;;;;;;;;;;;;20.73;74.07;101990.19;4991856;28;20377;-70
2023/07/07 08:22:23;;;;;;;;;;;;;;;20.87;74.26;101993.00;5001895;28;19941;-70
2023/07/07 08:24:51;;;;;;;;;;;;;;;21.00;71.27;101982.50;4986308;28;19965;-69
2023/07/07 08:27:18;;;;;;;;;;;;;;;21.12;68.95;101991.69;4998516;28;19930;-69
2023/07/07 08:29:48;;;;;;;;;;;;;;;21.26;72.11;101994.50;4989322;28;19999;-70
2023/07/07 08:32:18;;;;;;;;;;;;;;;21.39;67.76;101993.81;5007352;28;19930;-70
2023/07/07 08:34:45;;;;;;;;;;;;;;;21.56;69.72;101992.59;4991807;28;20214;-71
2023/07/07 08:37:21;;;;;;;;;;;;;;;21.77;64.15;101991.72;4998554;28;19930;-70
2023/07/07 08:39:47;;;;;;;;;;;;;;;22.05;59.98;101986.44;4995333;28;19984;-71
2023/07/07 08:42:29;;;;;;;;;;;;;;;22.41;59.49;101993.47;5002042;28;19929;-69
2023/07/07 08:44:57;;;;;;;;;;;;;;;22.80;56.76;101981.31;5005082;28;19981;-70
2023/07/07 08:47:24;;;;;;;;;;;;;;;23.23;57.56;101985.63;5002690;28;20272;-69
2023/07/07 08:49:57;;;;;;;;;;;;;;;23.65;56.90;101992.44;5003766;28;19929;-71
2023/07/07 08:52:33;;;;;;;;;;;;;;;24.08;55.58;101989.38;4999027;28;20025;-71
2023/07/07 08:55:18;;;;;;;;;;;;;;;24.51;56.60;101979.22;4988556;28;20386;-70
2023/07/07 08:57:51;;;;;;;;;;;;;;;24.91;54.21;101987.94;4995542;28;20331;-70
2023/07/07 09:00:23;;;;;;;;;;;;;;;25.25;51.65;101984.06;5000912;28;20429;-69
2023/07/07 09:03:02;;;;;;;;;;;;;;;25.56;50.87;101985.09;4996923;28;19930;-69
2023/07/07 09:05:37;;;;;;;;;;;;;;;25.84;50.41;101983.84;5002023;28;20440;-69
2023/07/07 09:08:14;;;;;;;;;;;;;;;26.08;49.46;101978.69;4992824;28;19936;-70
2023/07/07 09:10:52;;;;;;;;;;;;;;;26.39;50.91;101986.63;5006874;28;20516;-68
2023/07/07 09:13:22;;;;;;;;;;;;;;;26.63;49.26;101982.22;4995257;28;20000;-69
2023/07/07 09:15:58;;;;;;;;;;;;;;;26.92;49.67;101989.75;5002872;28;19940;-69
2023/07/07 09:18:27;;;;;;;;;;;;;;;27.18;48.98;101985.88;5003290;28;20024;-69
2023/07/07 09:20:56;;;;;;;;;;;;;;;27.40;47.68;101980.78;4977575;28;19980;-70
2023/07/07 09:23:26;;;;;;;;;;;;;;;27.52;45.98;101978.13;5004643;28;19929;-69
2023/07/07 09:25:57;;;;;;;;;;;;;;;27.75;48.71;101978.13;4999452;28;19969;-70
2023/07/07 09:28:27;;;;;;;;;;;;;;;27.95;46.62;101979.69;5002082;28;19961;-70
2023/07/07 09:30:58;;;;;;;;;;;;;;;28.13;46.97;101971.50;4989097;28;20412;-70
2023/07/07 09:33:26;;;;;;;;;;;;;;;28.32;46.70;101971.34;4981691;28;20379;-69
2023/07/07 09:35:58;;;;;;;;;;;;;;;28.44;46.31;101974.81;4985731;28;20045;-69
2023/07/07 09:38:27;;;;;;;;;;;;;;;28.70;46.93;101972.69;4969735;28;19996;-69
2023/07/07 09:40:54;;;;;;;;;;;;;;;28.88;45.38;101972.50;4983776;28;19960;-68
2023/07/07 09:43:26;;;;;;;;;;;;;;;29.08;45.80;101966.63;4975197;28;19932;-69
2023/07/07 09:46:06;;;;;;;;;;;;;;;29.23;42.49;101970.72;4985796;28;19933;-69
2023/07/07 09:48:45;;;;;;;;;;;;;;;29.24;41.34;101970.44;4983602;28;20290;-69
2023/07/07 09:51:31;;;;;;;;;;;;;;;29.45;43.21;101963.50;4982461;28;20405;-69
2023/07/07 09:53:57;;;;;;;;;;;;;;;29.51;41.14;101957.13;4994203;28;19979;-69
2023/07/07 09:56:30;;;;;;;;;;;;;;;29.72;42.79;101962.88;4986190;28;19934;-68
2023/07/07 09:59:06;;;;;;;;;;;;;;;29.76;40.17;101955.91;4989281;28;20592;-68
2023/07/07 10:01:33;;;;;;;;;;;;;;;29.86;40.77;101961.47;4982207;28;19936;-68
2023/07/07 10:04:00;;;;;;;;;;;;;;;29.95;41.24;101965.38;4990504;28;19926;-69
2023/07/07 10:06:50;;;;;;;;;;;;;;;30.13;41.17;101964.28;4976437;28;20167;-68
2023/07/07 10:09:16;;;;;;;;;;;;;;;30.22;39.74;101956.53;4980354;28;20315;-69
2023/07/07 10:11:43;;;;;;;;;;;;;;;30.24;40.13;101950.88;4985666;28;20346;-68
2023/07/07 10:14:13;;;;;;;;;;;;;;;30.37;41.50;101955.13;4988721;28;20718;-68
2023/07/07 10:16:49;;;;;;;;;;;;;;;30.42;39.50;101958.69;4985477;28;20004;-68
2023/07/07 10:19:16;;;;;;;;;;;;;;;30.51;39.35;101959.09;4973759;28;19926;-68
2023/07/07 10:21:42;;;;;;;;;;;;;;;30.58;39.18;101954.31;4981747;28;20428;-67
2023/07/07 10:24:13;;;;;;;;;;;;;;;30.69;40.46;101953.31;4983023;28;20342;-67
2023/07/07 10:26:42;;;;;;;;;;;;;;;30.63;37.90;101948.13;4989266;28;19933;-68
2023/07/07 10:29:11;;;;;;;;;;;;;;;30.92;39.16;101946.00;4981602;28;19933;-69
2023/07/07 10:31:40;;;;;;;;;;;;;;;31.00;39.53;101950.16;4985543;28;20414;-69
2023/07/07 10:34:22;;;;;;;;;;;;;;;31.01;39.46;101952.59;4979366;28;20478;-70
2023/07/07 10:36:51;;;;;;;;;;;;;;;31.20;38.95;101949.50;4987443;28;19926;-69
2023/07/07 10:39:18;;;;;;;;;;;;;;;31.36;38.27;101945.81;4985825;28;20575;-69
2023/07/07 10:41:44;;;;;;;;;;;;;;;31.49;39.15;101945.41;4983540;28;19929;-70
2023/07/07 10:44:10;;;;;;;;;;;;;;;31.59;37.67;101941.97;4988933;28;19965;-70
2023/07/07 10:46:37;;;;;;;;;;;;;;;31.66;39.32;101948.00;4978111;28;20545;-70
2023/07/07 10:49:04;;;;;;;;;;;;;;;31.67;37.70;101938.75;4982443;28;19953;-70
2023/07/07 10:51:33;;;;;;;;;;;;;;;31.82;38.73;101942.66;4985635;28;20297;-70
2023/07/07 10:54:06;;;;;;;;;;;;;;;31.79;38.69;101940.47;4982008;28;19957;-70
2023/07/07 10:56:34;;;;;;;;;;;;;;;31.79;39.76;101940.47;4986984;28;20613;-70
2023/07/07 10:59:14;;;;;;;;;;;;;;;31.88;37.38;101939.69;4981443;28;20043;-70
2023/07/07 11:01:59;;;;;;;;;;;;;;;31.97;37.40;101936.47;4983554;28;20353;-70
2023/07/07 11:04:25;;;;;;;;;;;;;;;32.03;38.28;101925.44;4980592;28;19929;-70
2023/07/07 11:06:59;;;;;;;;;;;;;;;32.05;36.83;101934.13;4987467;28;19934;-70
2023/07/07 11:09:34;;;;;;;;;;;;;;;32.30;37.56;101929.88;4979992;28;20410;-70
2023/07/07 11:12:16;;;;;;;;;;;;;;;32.22;36.71;101930.38;4988843;28;19929;-71
2023/07/07 11:14:42;;;;;;;;;;;;;;;32.40;37.28;101929.09;4977468;28;20016;-71
2023/07/07 11:17:27;;;;;;;;;;;;;;;32.53;39.00;101935.91;4981428;28;19952;-71
2023/07/07 11:20:16;;;;;;;;;;;;;;;32.68;37.40;101933.28;4986310;28;19930;-71
2023/07/07 11:23:07;;;;;;;;;;;;;;;32.77;36.78;101928.91;4982131;28;19929;-70
2023/07/07 11:25:46;;;;;;;;;;;;;;;32.79;40.14;101920.50;4992066;28;19930;-71
2023/07/07 11:28:13;;;;;;;;;;;;;;;32.73;37.23;101918.88;4975333;28;19934;-71
2023/07/07 11:30:50;;;;;;;;;;;;;;;32.93;37.80;101924.31;4982731;28;20302;-71
2023/07/07 11:33:20;;;;;;;;;;;;;;;32.94;37.10;101920.53;4980067;28;20345;-71
2023/07/07 11:35:49;;;;;;;;;;;;;;;33.04;37.51;101920.53;4992290;28;20052;-70
2023/07/07 11:38:24;;;;;;;;;;;;;;;32.97;34.69;101913.72;4981284;28;19965;-70
2023/07/07 11:40:53;;;;;;;;;;;;;;;32.96;34.68;101918.34;4982959;28;19933;-71
2023/07/07 11:43:25;;;;;;;;;;;;;;;33.15;34.85;101921.38;4974449;28;19926;-71
2023/07/07 11:47:08;;;;;;;4.70;2.50;;;;;;;33.13;35.45;101909.13;5071778;27;20760;-69
2023/07/07 11:50:04;;;;;;;6.10;2.40;;;;;;;33.04;35.06;101912.38;5023168;28;20060;-70
2023/07/07 11:52:45;;;;;;;6.72;2.92;;;;;;;33.19;36.34;101902.63;5018335;28;20056;-69
2023/07/07 12:06:45;;;;;;;4.63;2.53;;;;;;;33.78;34.63;101899.25;6013459;23;20494;-69
2023/07/07 12:09:25;;;;;;;6.43;2.58;;;;;;;33.83;35.29;101895.69;4942293;28;20094;-68
2023/07/07 12:11:58;;;;;;;5.28;2.65;;;;;;;33.84;34.90;101891.91;4950835;28;20699;-66
2023/07/07 12:14:33;;;;;;;6.35;2.90;;;;;;;33.64;34.14;101884.63;4980853;28;20081;-67
2023/07/07 12:17:01;;;;;;;7.53;2.38;;;;;;;33.71;35.71;101882.41;4964901;28;20691;-68
2023/07/07 12:19:39;;;;;;;4.97;2.47;;;;;;;33.47;32.21;101883.00;4974369;28;20050;-67
2023/07/07 12:22:16;;;;;;;;;;;;;;;33.64;34.73;101876.47;4983331;28;20125;-67
2023/07/07 12:24:56;;;;;;;5.95;2.60;;;;;;;33.65;33.87;101880.78;4972100;28;20024;-67
2023/07/07 12:27:37;;;;;;;4.82;2.78;;;;;;;33.79;34.82;101884.53;4979668;28;20050;-66
2023/07/07 12:30:06;;;;;;;4.47;2.67;;;;;;;33.68;33.54;101880.25;4961955;28;20082;-67
2023/07/07 12:32:33;;;;;;;4.45;2.45;;;;;;;33.97;34.08;101869.53;4963292;28;20057;-68
2023/07/07 12:35:15;;;;;;;6.45;2.58;;;;;;;33.89;32.91;101867.38;4954705;28;20130;-68
2023/07/07 12:37:42;;;;;;;5.32;2.70;;;;;;;34.03;32.40;101873.00;4959621;28;20055;-66
2023/07/07 12:40:08;;;;;;;5.05;2.28;;;;;;;34.15;32.44;101870.03;4957139;28;20059;-68
2023/07/07 12:42:38;;;;;;;7.38;2.88;;;;;;;34.13;32.70;101867.53;4946155;28;20134;-67
2023/07/07 12:45:28;;;;;;;4.78;2.42;;;;;;;33.98;32.93;101865.69;4963378;28;20058;-66
2023/07/07 12:48:06;;;;;;;5.03;2.33;;;;;;;34.17;33.48;101865.91;4956792;28;20054;-65
2023/07/07 12:50:42;;;;;;;6.22;2.60;;;;;;;34.39;33.85;101864.69;4963027;28;20055;-65